createdAt,value
2022-10-22T00:01:14.290Z,15.10
2022-10-22T00:03:43.069Z,15.10
2022-10-22T00:06:10.445Z,15.10
2022-10-22T00:08:38.388Z,15.10
2022-10-22T00:11:12.327Z,15.10
2022-10-22T00:13:39.470Z,15.10
2022-10-22T00:16:06.828Z,15.10
2022-10-22T00:18:33.905Z,15.10
2022-10-22T00:21:02.387Z,15.20
2022-10-22T00:23:29.228Z,15.20
2022-10-22T00:25:56.475Z,15.20
2022-10-22T00:28:24.145Z,15.30
2022-10-22T00:30:56.789Z,15.30
2022-10-22T00:33:23.887Z,15.30
2022-10-22T00:35:50.898Z,15.30
2022-10-22T00:38:19.255Z,15.30
2022-10-22T00:40:47.289Z,15.30
2022-10-22T00:43:18.655Z,15.30
2022-10-22T00:45:46.817Z,15.30
2022-10-22T00:48:19.904Z,15.30
2022-10-22T00:50:52.717Z,15.30
2022-10-22T00:53:26.411Z,15.30
2022-10-22T00:55:54.705Z,15.40
2022-10-22T00:58:27.428Z,15.40
2022-10-22T01:00:56.212Z,15.40
2022-10-22T01:03:23.937Z,15.40
2022-10-22T01:05:57.933Z,15.40
2022-10-22T01:08:40.644Z,15.40
2022-10-22T01:11:19.232Z,15.40
2022-10-22T01:13:58.187Z,15.40
2022-10-22T01:16:43.465Z,15.40
2022-10-22T01:19:39.265Z,15.40
2022-10-22T01:22:18.713Z,15.40
2022-10-22T01:25:03.165Z,15.40
2022-10-22T01:27:47.600Z,15.40
2022-10-22T01:30:17.254Z,15.40
2022-10-22T01:32:50.717Z,15.40
2022-10-22T01:35:27.640Z,15.40
2022-10-22T01:37:59.885Z,15.40
2022-10-22T01:40:28.986Z,15.40
2022-10-22T01:42:59.125Z,15.40
2022-10-22T01:45:30.770Z,15.40
2022-10-22T01:48:12.135Z,15.50
2022-10-22T01:51:02.105Z,15.50
2022-10-22T01:53:41.263Z,15.50
2022-10-22T01:56:34.190Z,15.50
2022-10-22T01:59:13.519Z,15.50
2022-10-22T02:01:57.366Z,15.50
2022-10-22T02:04:33.538Z,15.50
2022-10-22T02:07:07.826Z,15.50
2022-10-22T02:09:36.521Z,15.50
2022-10-22T02:12:06.992Z,15.50
2022-10-22T02:14:38.708Z,15.50
2022-10-22T02:17:14.024Z,15.40
2022-10-22T02:19:52.946Z,15.40
2022-10-22T02:22:21.012Z,15.40
2022-10-22T02:24:49.804Z,15.40
2022-10-22T02:27:26.945Z,15.30
2022-10-22T02:30:04.654Z,15.30
2022-10-22T02:32:40.052Z,15.30
2022-10-22T02:35:11.328Z,15.30
2022-10-22T02:37:40.317Z,15.30
2022-10-22T02:40:09.124Z,15.20
2022-10-22T02:42:39.195Z,15.20
2022-10-22T02:45:07.578Z,15.20
2022-10-22T02:47:35.863Z,15.10
2022-10-22T02:50:06.542Z,15.10
2022-10-22T02:52:36.480Z,15.00
2022-10-22T02:55:04.835Z,14.90
2022-10-22T02:57:32.660Z,14.90
2022-10-22T03:00:03.982Z,14.80
2022-10-22T03:02:31.128Z,14.70
2022-10-22T03:04:59.602Z,14.70
2022-10-22T03:07:26.875Z,14.60
2022-10-22T03:09:53.688Z,14.60
2022-10-22T03:12:20.563Z,14.50
2022-10-22T03:14:47.680Z,14.50
2022-10-22T03:17:14.976Z,14.50
2022-10-22T03:19:41.947Z,14.40
2022-10-22T03:22:15.599Z,14.40
2022-10-22T03:24:47.711Z,14.40
2022-10-22T03:27:16.505Z,14.40
2022-10-22T03:29:45.093Z,14.30
2022-10-22T03:32:13.088Z,14.30
2022-10-22T03:34:39.900Z,14.40
2022-10-22T03:37:06.965Z,14.40
2022-10-22T03:39:37.182Z,14.40
2022-10-22T03:42:07.001Z,14.50
2022-10-22T03:44:37.087Z,14.50
2022-10-22T03:47:04.245Z,14.50
2022-10-22T03:49:31.267Z,14.60
2022-10-22T03:51:58.544Z,14.60
2022-10-22T03:54:25.960Z,14.60
2022-10-22T03:56:54.748Z,14.70
2022-10-22T03:59:21.812Z,14.60
2022-10-22T04:01:48.820Z,14.70
2022-10-22T04:04:15.817Z,14.70
2022-10-22T04:06:43.037Z,14.70
2022-10-22T04:09:10.291Z,14.70
2022-10-22T04:11:37.374Z,14.70
2022-10-22T04:14:06.277Z,14.70
2022-10-22T04:16:33.150Z,14.70
2022-10-22T04:19:00.292Z,14.70
2022-10-22T04:21:27.076Z,14.70
2022-10-22T04:23:54.209Z,14.60
2022-10-22T04:26:21.774Z,14.60
2022-10-22T04:28:50.878Z,14.60
2022-10-22T04:31:22.327Z,14.50
2022-10-22T04:33:54.765Z,14.50
2022-10-22T04:36:22.405Z,14.50
2022-10-22T04:38:54.503Z,14.40
2022-10-22T04:41:25.300Z,14.40
2022-10-22T04:43:53.753Z,14.40
2022-10-22T04:46:24.303Z,14.30
2022-10-22T04:48:52.376Z,14.30
2022-10-22T04:51:22.805Z,14.30
2022-10-22T04:53:50.640Z,14.30
2022-10-22T04:56:20.186Z,14.30
2022-10-22T04:58:49.219Z,14.30
2022-10-22T05:01:19.610Z,14.30
2022-10-22T05:04:17.536Z,14.30
2022-10-22T05:06:45.347Z,14.20
2022-10-22T05:09:14.975Z,14.20
2022-10-22T05:11:44.947Z,14.20
2022-10-22T05:14:13.072Z,14.30
2022-10-22T05:16:40.138Z,14.30
2022-10-22T05:19:08.563Z,14.20
2022-10-22T05:21:37.965Z,14.30
2022-10-22T05:24:06.251Z,14.30
2022-10-22T05:26:33.574Z,14.30
2022-10-22T05:29:00.782Z,14.30
2022-10-22T05:31:27.642Z,14.30
2022-10-22T05:33:56.021Z,14.30
2022-10-22T05:36:23.582Z,14.30
2022-10-22T05:38:52.074Z,14.30
2022-10-22T05:41:22.377Z,14.30
2022-10-22T05:43:50.080Z,14.30
2022-10-22T05:46:22.869Z,14.20
2022-10-22T05:51:42.131Z,14.20
2022-10-22T05:54:18.129Z,14.20
2022-10-22T05:56:45.729Z,14.10
2022-10-22T05:59:12.805Z,14.10
2022-10-22T06:01:41.395Z,14.10
2022-10-22T06:04:12.550Z,14.10
2022-10-22T06:06:44.411Z,14.10
2022-10-22T06:09:17.508Z,14.10
2022-10-22T06:11:45.481Z,14.10
2022-10-22T06:14:13.449Z,14.00
2022-10-22T06:16:41.109Z,14.10
2022-10-22T06:19:09.907Z,14.10
2022-10-22T06:21:36.856Z,14.10
2022-10-22T06:24:04.329Z,14.10
2022-10-22T06:26:32.721Z,14.10
2022-10-22T06:29:00.188Z,14.10
2022-10-22T06:31:28.112Z,14.10
2022-10-22T06:33:56.518Z,14.20
2022-10-22T06:36:24.595Z,14.20
2022-10-22T06:38:53.389Z,14.20
2022-10-22T06:41:24.230Z,14.30
2022-10-22T06:43:55.997Z,14.30
2022-10-22T06:46:25.409Z,14.40
2022-10-22T06:48:59.708Z,14.40
2022-10-22T06:51:28.095Z,14.40
2022-10-22T06:53:55.988Z,14.50
2022-10-22T06:56:27.517Z,14.50
2022-10-22T06:58:58.468Z,14.50
2022-10-22T07:01:32.563Z,14.60
2022-10-22T07:04:00.453Z,14.60
2022-10-22T07:06:28.845Z,14.70
2022-10-22T07:08:57.829Z,14.70
2022-10-22T07:11:27.750Z,14.70
2022-10-22T07:13:57.484Z,14.70
2022-10-22T07:16:29.562Z,14.80
2022-10-22T07:19:00.086Z,14.80
2022-10-22T07:21:27.748Z,14.80
2022-10-22T07:23:54.804Z,14.80
2022-10-22T07:26:22.380Z,14.80
2022-10-22T07:28:49.412Z,14.90
2022-10-22T07:31:19.343Z,14.90
2022-10-22T07:33:46.884Z,15.00
2022-10-22T07:36:16.613Z,14.90
2022-10-22T07:38:44.264Z,15.00
2022-10-22T07:41:11.938Z,15.00
2022-10-22T07:43:41.453Z,15.00
2022-10-22T07:46:09.010Z,15.10
2022-10-22T07:51:28.197Z,15.10
2022-10-22T07:53:55.518Z,15.10
2022-10-22T07:56:22.416Z,15.20
2022-10-22T07:58:49.318Z,15.30
2022-10-22T08:01:16.651Z,15.30
2022-10-22T08:03:45.205Z,15.40
2022-10-22T08:06:14.317Z,15.40
2022-10-22T08:08:41.625Z,15.50
2022-10-22T08:11:10.348Z,15.50
2022-10-22T08:13:41.546Z,15.60
2022-10-22T08:16:11.125Z,15.80
2022-10-22T08:18:38.069Z,15.80
2022-10-22T08:21:06.952Z,15.80
2022-10-22T08:23:33.903Z,15.90
2022-10-22T08:26:00.758Z,16.10
2022-10-22T08:28:30.695Z,16.20
2022-10-22T08:30:57.692Z,16.20
2022-10-22T08:33:24.791Z,16.30
2022-10-22T08:35:52.761Z,16.40
2022-10-22T08:38:21.146Z,16.40
2022-10-22T08:40:53.731Z,16.40
2022-10-22T08:43:59.562Z,16.60
2022-10-22T08:46:46.359Z,16.80
2022-10-22T08:49:20.368Z,16.80
2022-10-22T08:51:48.046Z,16.80
2022-10-22T08:54:28.819Z,16.70
2022-10-22T08:57:19.220Z,16.60
2022-10-22T08:59:54.035Z,16.60
2022-10-22T09:02:40.572Z,17.00
2022-10-22T09:05:27.949Z,17.30
2022-10-22T09:07:57.164Z,17.40
2022-10-22T09:10:32.744Z,17.70
2022-10-22T09:12:59.753Z,18.20
2022-10-22T09:15:26.788Z,18.60
2022-10-22T09:18:11.340Z,18.60
2022-10-22T09:20:46.986Z,18.30
2022-10-22T09:23:30.520Z,18.30
2022-10-22T09:26:00.138Z,18.60
2022-10-22T09:28:27.102Z,19.50
2022-10-22T09:30:54.620Z,19.40
2022-10-22T09:33:26.216Z,19.50
2022-10-22T09:35:55.789Z,20.10
2022-10-22T09:38:28.497Z,21.10
2022-10-22T09:41:00.765Z,21.90
2022-10-22T09:43:27.748Z,22.90
2022-10-22T09:46:01.941Z,23.70
2022-10-22T09:48:33.299Z,23.70
2022-10-22T09:51:18.362Z,24.40
2022-10-22T09:53:55.077Z,25.00
2022-10-22T09:56:33.953Z,25.60
2022-10-22T09:59:04.400Z,25.90
2022-10-22T10:01:34.234Z,26.10
2022-10-22T10:04:09.988Z,26.40
2022-10-22T10:06:41.107Z,26.40
2022-10-22T10:09:16.699Z,26.70
2022-10-22T10:11:55.569Z,26.80
2022-10-22T10:14:35.208Z,27.00
2022-10-22T10:17:12.664Z,27.20
2022-10-22T10:20:01.478Z,27.20
2022-10-22T10:22:50.920Z,26.50
2022-10-22T10:25:52.481Z,26.10
2022-10-22T10:28:35.899Z,26.20
2022-10-22T10:31:19.842Z,26.50
2022-10-22T10:34:04.797Z,26.90
2022-10-22T10:36:43.806Z,27.10
2022-10-22T10:39:23.977Z,27.30
2022-10-22T10:42:01.736Z,27.30
2022-10-22T10:44:59.448Z,27.50
2022-10-22T10:48:03.641Z,27.50
2022-10-22T10:50:41.428Z,27.60
2022-10-22T10:53:21.665Z,27.60
2022-10-22T10:56:01.579Z,27.70
2022-10-22T10:58:45.442Z,27.70
2022-10-22T11:01:27.578Z,27.80
2022-10-22T11:04:41.814Z,27.90
2022-10-22T11:07:23.380Z,28.00
2022-10-22T11:10:09.763Z,28.10
2022-10-22T11:12:45.035Z,28.30
2022-10-22T11:15:27.324Z,28.60
2022-10-22T11:18:05.203Z,28.50
2022-10-22T11:20:46.183Z,28.30
2022-10-22T11:23:22.011Z,28.10
2022-10-22T11:25:50.993Z,27.80
2022-10-22T11:28:25.584Z,28.40
2022-10-22T11:31:01.888Z,28.20
2022-10-22T11:33:52.696Z,27.50
2022-10-22T11:36:28.512Z,26.70
2022-10-22T11:38:56.039Z,26.10
2022-10-22T11:41:28.601Z,25.50
2022-10-22T11:44:10.116Z,25.00
2022-10-22T11:46:54.328Z,24.80
2022-10-22T11:49:41.644Z,24.50
2022-10-22T11:52:27.119Z,24.80
2022-10-22T11:54:56.809Z,25.10
2022-10-22T11:57:35.591Z,25.70
2022-10-22T12:00:27.407Z,26.00
2022-10-22T12:03:04.143Z,26.40
2022-10-22T12:05:36.960Z,26.70
2022-10-22T12:08:26.311Z,26.60
2022-10-22T12:11:20.257Z,26.30
2022-10-22T12:14:16.589Z,26.30
2022-10-22T12:16:56.326Z,25.80
2022-10-22T12:19:32.406Z,25.30
2022-10-22T12:22:14.698Z,25.10
2022-10-22T12:24:43.646Z,24.90
2022-10-22T12:27:22.592Z,24.90
2022-10-22T12:29:55.260Z,24.90
2022-10-22T12:32:29.173Z,24.80
2022-10-22T12:34:56.048Z,24.60
2022-10-22T12:37:24.431Z,24.30
2022-10-22T12:39:52.004Z,24.10
2022-10-22T12:42:19.149Z,23.90
2022-10-22T12:44:46.322Z,23.80
2022-10-22T12:47:17.775Z,23.60
2022-10-22T12:49:50.361Z,23.50
2022-10-22T12:52:22.061Z,23.40
2022-10-22T12:54:52.470Z,23.50
2022-10-22T12:57:21.351Z,23.60
2022-10-22T12:59:51.843Z,23.40
2022-10-22T13:02:22.870Z,23.00
2022-10-22T13:05:17.459Z,22.70
2022-10-22T13:07:48.858Z,22.40
2022-10-22T13:10:24.748Z,22.10
2022-10-22T13:12:56.711Z,21.90
2022-10-22T13:15:37.530Z,21.70
2022-10-22T13:18:16.168Z,21.50
2022-10-22T13:20:55.982Z,21.30
2022-10-22T13:23:25.815Z,21.20
2022-10-22T13:26:04.625Z,21.10
2022-10-22T13:28:32.980Z,21.20
2022-10-22T13:31:10.054Z,21.20
2022-10-22T13:33:40.329Z,21.40
2022-10-22T13:36:14.130Z,21.50
2022-10-22T13:38:42.663Z,21.60
2022-10-22T13:41:22.299Z,21.50
2022-10-22T13:43:50.457Z,21.40
2022-10-22T13:46:18.380Z,21.20
2022-10-22T13:48:47.868Z,21.20
2022-10-22T13:51:18.448Z,21.00
2022-10-22T13:53:47.061Z,20.90
2022-10-22T13:56:15.578Z,21.40
2022-10-22T13:58:46.277Z,21.80
2022-10-22T14:01:21.298Z,22.00
2022-10-22T14:03:50.543Z,21.80
2022-10-22T14:06:19.416Z,21.60
2022-10-22T14:08:53.538Z,21.30
2022-10-22T14:11:20.840Z,21.20
2022-10-22T14:13:49.041Z,21.10
2022-10-22T14:16:21.840Z,21.00
2022-10-22T14:18:49.357Z,21.10
2022-10-22T14:21:18.617Z,21.30
2022-10-22T14:23:47.850Z,21.20
2022-10-22T14:26:23.772Z,21.00
2022-10-22T14:34:15.123Z,20.50
2022-10-22T14:36:42.675Z,20.30
2022-10-22T14:39:09.792Z,20.20
2022-10-22T14:41:37.516Z,20.10
2022-10-22T14:44:06.365Z,20.00
2022-10-22T14:46:33.351Z,19.90
2022-10-22T14:49:00.348Z,19.80
2022-10-22T14:51:27.304Z,19.80
2022-10-22T14:53:54.928Z,19.70
2022-10-22T14:56:21.697Z,19.60
2022-10-22T14:58:49.841Z,19.60
2022-10-22T15:01:18.121Z,19.50
2022-10-22T15:03:45.276Z,19.40
2022-10-22T15:06:12.372Z,19.30
2022-10-22T15:08:39.774Z,19.20
2022-10-22T15:11:10.091Z,19.20
2022-10-22T15:13:38.026Z,19.10
2022-10-22T15:16:08.581Z,19.00
2022-10-22T15:18:36.841Z,18.90
2022-10-22T15:21:06.993Z,18.90
2022-10-22T15:23:36.003Z,18.80
2022-10-22T15:26:02.884Z,18.70
2022-10-22T15:28:29.689Z,18.60
2022-10-22T15:30:59.113Z,18.50
2022-10-22T15:33:28.054Z,18.40
2022-10-22T15:35:57.570Z,18.40
2022-10-22T15:41:04.553Z,18.30
2022-10-22T15:43:33.153Z,18.30
2022-10-22T15:46:11.874Z,18.20
2022-10-22T15:48:38.926Z,18.20
2022-10-22T15:51:13.865Z,18.20
2022-10-22T15:53:41.640Z,18.20
2022-10-22T15:56:09.713Z,18.20
2022-10-22T15:58:36.639Z,18.10
2022-10-22T16:01:08.127Z,18.10
2022-10-22T16:03:35.703Z,18.10
2022-10-22T16:06:03.857Z,18.00
2022-10-22T16:08:32.782Z,17.90
2022-10-22T16:11:00.129Z,17.90
2022-10-22T16:13:27.046Z,17.90
2022-10-22T16:15:54.317Z,17.80
2022-10-22T16:18:21.596Z,17.80
2022-10-22T16:20:48.423Z,17.80
2022-10-22T16:23:15.477Z,17.80
2022-10-22T16:25:44.253Z,17.70
2022-10-22T16:28:12.433Z,17.70
2022-10-22T16:30:39.610Z,17.70
2022-10-22T16:33:08.376Z,17.70
2022-10-22T16:35:40.158Z,17.70
2022-10-22T16:38:06.902Z,17.60
2022-10-22T16:40:34.107Z,17.50
2022-10-22T16:43:02.813Z,17.50
2022-10-22T16:45:29.699Z,17.50
2022-10-22T16:47:56.548Z,17.50
2022-10-22T16:50:23.415Z,17.50
2022-10-22T16:52:50.277Z,17.40
2022-10-22T16:55:17.832Z,17.40
2022-10-22T17:00:42.762Z,17.30
2022-10-22T17:03:11.701Z,17.20
2022-10-22T17:05:38.795Z,17.10
2022-10-22T17:08:05.941Z,17.10
2022-10-22T17:10:32.989Z,17.00
2022-10-22T17:12:59.833Z,17.00
2022-10-22T17:15:26.791Z,17.00
2022-10-22T17:17:55.063Z,16.90
2022-10-22T17:22:57.616Z,16.80
2022-10-22T17:25:35.583Z,16.80
2022-10-22T17:28:03.043Z,16.80
2022-10-22T17:30:32.566Z,16.70
2022-10-22T17:33:01.361Z,16.70
2022-10-22T17:35:28.549Z,16.70
2022-10-22T17:37:55.588Z,16.60
2022-10-22T17:40:23.089Z,16.60
2022-10-22T17:42:50.061Z,16.60
2022-10-22T17:45:17.438Z,16.60
2022-10-22T17:47:44.492Z,16.60
2022-10-22T17:50:13.268Z,16.50
2022-10-22T17:52:40.861Z,16.50
2022-10-22T17:55:09.207Z,16.50
2022-10-22T17:57:42.990Z,16.50
2022-10-22T18:00:15.012Z,16.50
2022-10-22T18:02:42.798Z,16.50
2022-10-22T18:05:12.608Z,16.40
2022-10-22T18:07:39.790Z,16.40
2022-10-22T18:10:11.147Z,16.40
2022-10-22T18:12:38.107Z,16.40
2022-10-22T18:15:06.444Z,16.40
2022-10-22T18:17:35.931Z,16.40
2022-10-22T18:20:13.024Z,16.40
2022-10-22T18:22:47.497Z,16.40
2022-10-22T18:25:14.749Z,16.40
2022-10-22T18:27:42.245Z,16.40
2022-10-22T18:30:10.525Z,16.40
2022-10-22T18:32:37.427Z,16.40
2022-10-22T18:35:08.187Z,16.30
2022-10-22T18:37:35.613Z,16.40
2022-10-22T18:40:06.682Z,16.40
2022-10-22T18:42:37.823Z,16.40
2022-10-22T18:45:07.994Z,16.30
2022-10-22T18:47:34.944Z,16.30
2022-10-22T18:50:02.036Z,16.30
2022-10-22T18:52:29.158Z,16.20
2022-10-22T18:54:58.885Z,16.20
2022-10-22T18:57:29.768Z,16.20
2022-10-22T19:00:04.333Z,16.10
2022-10-22T19:02:34.479Z,16.10
2022-10-22T19:05:01.629Z,16.00
2022-10-22T19:07:37.894Z,16.00
2022-10-22T19:10:06.890Z,16.00
2022-10-22T19:12:36.598Z,15.90
2022-10-22T19:15:05.087Z,15.90
2022-10-22T19:17:32.141Z,15.90
2022-10-22T19:19:58.976Z,15.90
2022-10-22T19:22:26.173Z,15.90
2022-10-22T19:24:53.423Z,15.80
2022-10-22T19:27:20.371Z,15.80
2022-10-22T19:29:48.865Z,15.80
2022-10-22T19:32:16.089Z,15.80
2022-10-22T19:34:43.463Z,15.80
2022-10-22T19:37:10.776Z,15.80
2022-10-22T19:39:37.922Z,15.70
2022-10-22T19:42:05.174Z,15.70
2022-10-22T19:44:32.375Z,15.70
2022-10-22T19:47:00.862Z,15.60
2022-10-22T19:49:28.146Z,15.60
2022-10-22T19:51:55.099Z,15.60
2022-10-22T19:54:22.000Z,15.50
2022-10-22T19:56:50.189Z,15.50
2022-10-22T19:59:19.813Z,15.50
2022-10-22T20:01:49.752Z,15.50
2022-10-22T20:04:19.070Z,15.50
2022-10-22T20:06:46.838Z,15.40
2022-10-22T20:09:14.182Z,15.40
2022-10-22T20:11:41.508Z,15.40
2022-10-22T20:14:08.358Z,15.30
2022-10-22T20:16:35.759Z,15.30
2022-10-22T20:19:06.167Z,15.30
2022-10-22T20:21:37.173Z,15.20
2022-10-22T20:24:04.750Z,15.20
2022-10-22T20:26:32.160Z,15.20
2022-10-22T20:28:59.198Z,15.10
2022-10-22T20:31:28.866Z,15.10
2022-10-22T20:34:00.897Z,15.10
2022-10-22T20:36:29.842Z,15.00
2022-10-22T20:41:53.129Z,15.00
2022-10-22T20:44:21.343Z,14.90
2022-10-22T20:46:48.505Z,14.90
2022-10-22T20:49:17.735Z,14.80
2022-10-22T20:51:44.916Z,14.80
2022-10-22T20:54:14.778Z,14.80
2022-10-22T20:56:43.499Z,14.80
2022-10-22T20:59:11.459Z,14.70
2022-10-22T21:01:41.138Z,14.70
2022-10-22T21:04:08.782Z,14.70
2022-10-22T21:06:36.378Z,14.70
2022-10-22T21:09:04.832Z,14.70
2022-10-22T21:11:33.620Z,14.60
2022-10-22T21:14:00.591Z,14.60
2022-10-22T21:16:27.835Z,14.60
2022-10-22T21:18:54.951Z,14.60
2022-10-22T21:21:24.189Z,14.60
2022-10-22T21:23:51.507Z,14.50
2022-10-22T21:26:19.212Z,14.50
2022-10-22T21:28:48.119Z,14.50
2022-10-22T21:31:20.406Z,14.40
2022-10-22T21:33:49.209Z,14.40
2022-10-22T21:36:20.272Z,14.40
2022-10-22T21:38:49.937Z,14.40
2022-10-22T21:41:19.880Z,14.30
2022-10-22T21:43:49.017Z,14.30
2022-10-22T21:46:19.172Z,14.30
2022-10-22T21:48:51.891Z,14.30
2022-10-22T21:51:20.405Z,14.30
2022-10-22T21:53:48.478Z,14.20
2022-10-22T21:56:18.559Z,14.20
2022-10-22T21:58:46.037Z,14.20
2022-10-22T22:01:16.255Z,14.10
2022-10-22T22:03:45.972Z,14.10
2022-10-22T22:06:13.712Z,14.10
2022-10-22T22:08:41.494Z,14.00
2022-10-22T22:11:11.471Z,14.00
2022-10-22T22:14:03.126Z,14.00
2022-10-22T22:16:33.414Z,13.90
2022-10-22T22:21:31.926Z,13.90
2022-10-22T22:23:59.011Z,13.90
2022-10-22T22:26:29.891Z,13.90
2022-10-22T22:28:59.263Z,13.90
2022-10-22T22:31:30.236Z,13.80
2022-10-22T22:34:05.766Z,13.80
2022-10-22T22:36:36.415Z,13.80
2022-10-22T22:39:09.612Z,13.80
2022-10-22T22:41:36.876Z,13.80
2022-10-22T22:44:04.440Z,13.80
2022-10-22T22:46:31.445Z,13.70
2022-10-22T22:48:58.508Z,13.70
2022-10-22T22:51:27.126Z,13.70
2022-10-22T22:53:54.392Z,13.70
2022-10-22T22:56:24.579Z,13.70
2022-10-22T22:58:51.665Z,13.60
2022-10-22T23:01:23.001Z,13.60
2022-10-22T23:03:56.424Z,13.60
2022-10-22T23:06:26.571Z,13.60
2022-10-22T23:08:56.865Z,13.50
2022-10-22T23:11:27.067Z,13.50
2022-10-22T23:13:58.009Z,13.50
2022-10-22T23:16:28.432Z,13.50
2022-10-22T23:18:56.700Z,13.50
2022-10-22T23:21:27.957Z,13.50
2022-10-22T23:23:58.662Z,13.50
2022-10-22T23:26:29.054Z,13.40
2022-10-22T23:29:00.992Z,13.40
2022-10-22T23:31:27.905Z,13.40
2022-10-22T23:33:54.921Z,13.40
2022-10-22T23:36:21.969Z,13.40
2022-10-22T23:38:50.602Z,13.40
2022-10-22T23:41:17.918Z,13.40
2022-10-22T23:43:44.954Z,13.40
2022-10-22T23:46:13.787Z,13.40
2022-10-22T23:48:41.205Z,13.40
2022-10-22T23:51:10.505Z,13.30
2022-10-22T23:53:38.487Z,13.30
2022-10-22T23:56:10.046Z,13.30
2022-10-22T23:58:38.227Z,13.30
